sensor_id;sensor_type;location;lat;lon;timestamp;pressure;altitude;pressure_sealevel;temperature;humidity
75991;BME280;64673;52.276;10.560;2023-02-01T00:01:44;100664.44;;;4.33;75.46
75991;BME280;64673;52.276;10.560;2023-02-01T00:04:11;100651.91;;;4.33;75.68
75991;BME280;64673;52.276;10.560;2023-02-01T00:06:36;100665.81;;;4.35;76.13
75991;BME280;64673;52.276;10.560;2023-02-01T00:09:01;100651.44;;;4.36;75.03
75991;BME280;64673;52.276;10.560;2023-02-01T00:11:27;100638.56;;;4.33;76.21
75991;BME280;64673;52.276;10.560;2023-02-01T00:13:52;100640.03;;;4.29;75.10
75991;BME280;64673;52.276;10.560;2023-02-01T00:16:24;100629.72;;;4.33;75.27
75991;BME280;64673;52.276;10.560;2023-02-01T00:18:51;100637.22;;;4.24;76.26
75991;BME280;64673;52.276;10.560;2023-02-01T00:21:20;100639.75;;;4.19;76.20
75991;BME280;64673;52.276;10.560;2023-02-01T00:23:46;100636.50;;;4.17;76.51
75991;BME280;64673;52.276;10.560;2023-02-01T00:26:17;100636.19;;;4.25;76.16
75991;BME280;64673;52.276;10.560;2023-02-01T00:28:43;100641.53;;;4.25;76.18
75991;BME280;64673;52.276;10.560;2023-02-01T00:31:09;100638.28;;;4.23;75.83
75991;BME280;64673;52.276;10.560;2023-02-01T00:33:34;100650.81;;;4.23;76.21
75991;BME280;64673;52.276;10.560;2023-02-01T00:36:05;100636.78;;;4.27;76.03
75991;BME280;64673;52.276;10.560;2023-02-01T00:38:33;100638.03;;;4.25;76.64
75991;BME280;64673;52.276;10.560;2023-02-01T00:41:10;100628.94;;;4.14;77.82
75991;BME280;64673;52.276;10.560;2023-02-01T00:43:36;100626.19;;;4.21;76.77
75991;BME280;64673;52.276;10.560;2023-02-01T00:46:01;100625.81;;;4.17;76.40
75991;BME280;64673;52.276;10.560;2023-02-01T00:48:27;100623.75;;;4.19;77.40
75991;BME280;64673;52.276;10.560;2023-02-01T00:50:52;100629.91;;;4.20;77.02
75991;BME280;64673;52.276;10.560;2023-02-01T00:53:18;100627.47;;;4.18;77.53
75991;BME280;64673;52.276;10.560;2023-02-01T00:55:47;100629.91;;;4.20;76.81
75991;BME280;64673;52.276;10.560;2023-02-01T00:58:13;100621.03;;;4.08;78.36
75991;BME280;64673;52.276;10.560;2023-02-01T01:00:38;100615.59;;;4.14;77.51
75991;BME280;64673;52.276;10.560;2023-02-01T01:03:04;100619.63;;;4.05;78.41
75991;BME280;64673;52.276;10.560;2023-02-01T01:05:46;100615.69;;;4.08;77.99
75991;BME280;64673;52.276;10.560;2023-02-01T01:08:13;100606.38;;;3.98;78.47
75991;BME280;64673;52.276;10.560;2023-02-01T01:10:38;100616.22;;;3.98;78.16
75991;BME280;64673;52.276;10.560;2023-02-01T01:13:04;100605.88;;;3.90;79.13
75991;BME280;64673;52.276;10.560;2023-02-01T01:15:30;100605.88;;;3.90;79.44
75991;BME280;64673;52.276;10.560;2023-02-01T01:17:55;100612.03;;;3.90;79.31
75991;BME280;64673;52.276;10.560;2023-02-01T01:20:20;100595.19;;;3.90;78.81
75991;BME280;64673;52.276;10.560;2023-02-01T01:22:47;100603.19;;;3.90;79.01
75991;BME280;64673;52.276;10.560;2023-02-01T01:25:13;100603.19;;;3.90;78.69
75991;BME280;64673;52.276;10.560;2023-02-01T01:27:38;100597.03;;;3.89;78.61
75991;BME280;64673;52.276;10.560;2023-02-01T01:30:04;100600.16;;;3.86;80.25
75991;BME280;64673;52.276;10.560;2023-02-01T01:32:30;100602.00;;;3.86;79.62
75991;BME280;64673;52.276;10.560;2023-02-01T01:34:55;100596.66;;;3.86;79.82
75991;BME280;64673;52.276;10.560;2023-02-01T01:37:20;100603.19;;;3.90;79.13
75991;BME280;64673;52.276;10.560;2023-02-01T01:39:46;100599.50;;;3.91;79.17
75991;BME280;64673;52.276;10.560;2023-02-01T01:42:11;100599.72;;;3.89;79.35
75991;BME280;64673;52.276;10.560;2023-02-01T01:47:36;100607.50;;;3.91;79.30
75991;BME280;64673;52.276;10.560;2023-02-01T01:50:04;100600.00;;;3.99;78.63
75991;BME280;64673;52.276;10.560;2023-02-01T01:52:32;100605.09;;;4.01;78.61
75991;BME280;64673;52.276;10.560;2023-02-01T01:54:58;100610.44;;;4.01;79.10
75991;BME280;64673;52.276;10.560;2023-02-01T01:57:27;100605.09;;;4.01;78.54
75991;BME280;64673;52.276;10.560;2023-02-01T02:00:00;100618.44;;;4.01;78.44
75991;BME280;64673;52.276;10.560;2023-02-01T02:02:28;100602.06;;;3.97;78.58
75991;BME280;64673;52.276;10.560;2023-02-01T02:04:53;100613.78;;;3.96;78.77
75991;BME280;64673;52.276;10.560;2023-02-01T02:07:26;100604.34;;;3.94;79.45
75991;BME280;64673;52.276;10.560;2023-02-01T02:09:53;100606.91;;;3.89;79.45
75991;BME280;64673;52.276;10.560;2023-02-01T02:12:19;100596.22;;;3.89;78.67
75991;BME280;64673;52.276;10.560;2023-02-01T02:14:44;100587.03;;;3.85;80.12
75991;BME280;64673;52.276;10.560;2023-02-01T02:26:46;100573.69;;;3.85;79.15
75991;BME280;64673;52.276;10.560;2023-02-01T02:37:22;100560.81;;;3.82;80.42
75991;BME280;64673;52.276;10.560;2023-02-01T02:40:14;100552.91;;;3.75;80.68
75991;BME280;64673;52.276;10.560;2023-02-01T02:43:22;100564.75;;;3.79;79.99
75991;BME280;64673;52.276;10.560;2023-02-01T02:46:21;100553.28;;;3.79;79.72
75991;BME280;64673;52.276;10.560;2023-02-01T02:49:20;100541.84;;;3.72;81.10
75991;BME280;64673;52.276;10.560;2023-02-01T02:51:53;100544.66;;;3.77;79.71
75991;BME280;64673;52.276;10.560;2023-02-01T02:54:43;100551.41;;;3.79;80.05
75991;BME280;64673;52.276;10.560;2023-02-01T02:57:32;100535.63;;;3.78;80.12
75991;BME280;64673;52.276;10.560;2023-02-01T03:00:21;100536.06;;;3.75;79.73
75991;BME280;64673;52.276;10.560;2023-02-01T03:03:07;100534.81;;;3.77;80.54
75991;BME280;64673;52.276;10.560;2023-02-01T03:05:51;100522.06;;;3.79;79.76
75991;BME280;64673;52.276;10.560;2023-02-01T03:08:24;100529.94;;;3.74;80.73
75991;BME280;64673;52.276;10.560;2023-02-01T03:11:06;100536.44;;;3.78;80.20
75991;BME280;64673;52.276;10.560;2023-02-01T03:21:46;100512.78;;;3.82;80.20
75991;BME280;64673;52.276;10.560;2023-02-01T03:24:25;100501.56;;;3.80;80.01
75991;BME280;64673;52.276;10.560;2023-02-01T03:27:04;100509.56;;;3.80;80.22
75991;BME280;64673;52.276;10.560;2023-02-01T03:29:38;100509.06;;;3.83;79.97
75991;BME280;64673;52.276;10.560;2023-02-01T03:32:05;100502.94;;;3.82;79.70
75991;BME280;64673;52.276;10.560;2023-02-01T03:34:30;100493.78;;;3.78;80.35
75991;BME280;64673;52.276;10.560;2023-02-01T03:37:01;100487.19;;;3.81;80.06
75991;BME280;64673;52.276;10.560;2023-02-01T03:40:05;100491.59;;;3.87;79.45
75991;BME280;64673;52.276;10.560;2023-02-01T03:42:43;100488.31;;;3.85;80.65
75991;BME280;64673;52.276;10.560;2023-02-01T03:47:46;100504.47;;;3.90;79.99
75991;BME280;64673;52.276;10.560;2023-02-01T03:50:18;100475.47;;;3.93;79.63
75991;BME280;64673;52.276;10.560;2023-02-01T03:52:50;100483.72;;;3.92;79.59
75991;BME280;64673;52.276;10.560;2023-02-01T03:55:20;100475.47;;;3.93;79.17
75991;BME280;64673;52.276;10.560;2023-02-01T03:57:52;100489.06;;;3.92;79.49
75991;BME280;64673;52.276;10.560;2023-02-01T04:00:22;100474.22;;;3.96;79.61
75991;BME280;64673;52.276;10.560;2023-02-01T04:02:48;100475.13;;;3.90;79.40
75991;BME280;64673;52.276;10.560;2023-02-01T04:05:14;100468.88;;;3.96;80.71
75991;BME280;64673;52.276;10.560;2023-02-01T04:07:40;100467.25;;;3.95;80.35
75991;BME280;64673;52.276;10.560;2023-02-01T04:10:06;100468.50;;;3.92;81.04
75991;BME280;64673;52.276;10.560;2023-02-01T04:12:32;100477.59;;;3.91;81.74
75991;BME280;64673;52.276;10.560;2023-02-01T04:14:57;100450.53;;;3.88;81.83
75991;BME280;64673;52.276;10.560;2023-02-01T04:17:23;100461.06;;;3.83;83.25
75991;BME280;64673;52.276;10.560;2023-02-01T04:19:48;100456.31;;;3.85;82.53
75991;BME280;64673;52.276;10.560;2023-02-01T04:22:14;100439.59;;;3.78;82.73
75991;BME280;64673;52.276;10.560;2023-02-01T04:24:39;100439.16;;;3.81;83.29
75991;BME280;64673;52.276;10.560;2023-02-01T04:27:04;100443.75;;;3.74;84.40
75991;BME280;64673;52.276;10.560;2023-02-01T04:29:30;100426.28;;;3.78;83.47
75991;BME280;64673;52.276;10.560;2023-02-01T04:31:55;100446.56;;;3.79;83.85
75991;BME280;64673;52.276;10.560;2023-02-01T04:34:20;100437.97;;;3.77;84.61
75991;BME280;64673;52.276;10.560;2023-02-01T04:36:47;100436.34;;;3.76;84.07
75991;BME280;64673;52.276;10.560;2023-02-01T04:39:12;100434.72;;;3.75;84.42
75991;BME280;64673;52.276;10.560;2023-02-01T04:41:38;100433.81;;;3.81;83.61
75991;BME280;64673;52.276;10.560;2023-02-01T04:44:03;100420.81;;;3.84;84.07
75991;BME280;64673;52.276;10.560;2023-02-01T04:46:29;100422.22;;;3.87;84.13
75991;BME280;64673;52.276;10.560;2023-02-01T04:48:54;100406.66;;;3.84;83.76
75991;BME280;64673;52.276;10.560;2023-02-01T04:51:19;100392.75;;;3.82;83.91
75991;BME280;64673;52.276;10.560;2023-02-01T04:53:45;100410.84;;;3.80;83.90
75991;BME280;64673;52.276;10.560;2023-02-01T04:56:10;100408.28;;;3.85;83.21
75991;BME280;64673;52.276;10.560;2023-02-01T04:58:36;100398.66;;;3.84;83.54
75991;BME280;64673;52.276;10.560;2023-02-01T05:01:05;100410.63;;;3.81;84.42
75991;BME280;64673;52.276;10.560;2023-02-01T05:03:34;100405.53;;;3.80;85.52
75991;BME280;64673;52.276;10.560;2023-02-01T05:06:00;100402.72;;;3.75;85.45
75991;BME280;64673;52.276;10.560;2023-02-01T05:08:26;100395.75;;;3.74;85.12
75991;BME280;64673;52.276;10.560;2023-02-01T05:10:52;100383.34;;;3.67;84.79
75991;BME280;64673;52.276;10.560;2023-02-01T05:13:18;100384.63;;;3.77;85.12
75991;BME280;64673;52.276;10.560;2023-02-01T05:16:02;100390.66;;;3.84;84.00
75991;BME280;64673;52.276;10.560;2023-02-01T05:18:27;100387.22;;;3.95;82.72
75991;BME280;64673;52.276;10.560;2023-02-01T05:20:52;100385.00;;;3.92;83.94
75991;BME280;64673;52.276;10.560;2023-02-01T05:23:18;100383.50;;;3.96;82.91
75991;BME280;64673;52.276;10.560;2023-02-01T05:25:43;100368.66;;;4.00;82.08
75991;BME280;64673;52.276;10.560;2023-02-01T05:28:08;100386.53;;;3.99;82.87
75991;BME280;64673;52.276;10.560;2023-02-01T05:30:34;100381.88;;;3.95;83.02
75991;BME280;64673;52.276;10.560;2023-02-01T05:33:01;100383.63;;;3.89;84.20
75991;BME280;64673;52.276;10.560;2023-02-01T05:35:26;100390.66;;;3.84;84.39
75991;BME280;64673;52.276;10.560;2023-02-01T05:37:51;100379.16;;;3.72;86.41
75991;BME280;64673;52.276;10.560;2023-02-01T05:40:17;100379.81;;;3.55;87.34
75991;BME280;64673;52.276;10.560;2023-02-01T05:42:42;100363.69;;;3.39;89.72
75991;BME280;64673;52.276;10.560;2023-02-01T05:45:08;100378.25;;;3.36;89.68
75991;BME280;64673;52.276;10.560;2023-02-01T05:47:33;100368.72;;;3.28;89.85
75991;BME280;64673;52.276;10.560;2023-02-01T05:49:59;100363.25;;;3.23;90.03
75991;BME280;64673;52.276;10.560;2023-02-01T05:52:24;100374.03;;;3.17;91.57
75991;BME280;64673;52.276;10.560;2023-02-01T05:54:49;100366.59;;;3.19;91.32
75991;BME280;64673;52.276;10.560;2023-02-01T05:57:15;100366.03;;;3.17;91.53
75991;BME280;64673;52.276;10.560;2023-02-01T05:59:40;100376.69;;;3.17;90.33
75991;BME280;64673;52.276;10.560;2023-02-01T06:02:08;100375.28;;;3.14;90.98
75991;BME280;64673;52.276;10.560;2023-02-01T06:04:35;100375.06;;;3.16;92.33
75991;BME280;64673;52.276;10.560;2023-02-01T06:07:00;100370.63;;;3.10;92.23
75991;BME280;64673;52.276;10.560;2023-02-01T06:09:26;100368.97;;;3.09;91.79
75991;BME280;64673;52.276;10.560;2023-02-01T06:11:51;100356.25;;;3.11;92.52
75991;BME280;64673;52.276;10.560;2023-02-01T06:14:16;100344.13;;;3.15;92.08
75991;BME280;64673;52.276;10.560;2023-02-01T06:16:42;100346.41;;;3.11;92.03
75991;BME280;64673;52.276;10.560;2023-02-01T06:19:07;100340.84;;;3.13;91.41
75991;BME280;64673;52.276;10.560;2023-02-01T06:21:35;100349.44;;;3.15;91.92
75991;BME280;64673;52.276;10.560;2023-02-01T06:24:01;100340.03;;;3.12;91.87
75991;BME280;64673;52.276;10.560;2023-02-01T06:26:26;100349.22;;;3.16;91.57
75991;BME280;64673;52.276;10.560;2023-02-01T06:28:53;100336.72;;;3.17;92.99
75991;BME280;64673;52.276;10.560;2023-02-01T06:31:20;100332.19;;;3.17;91.85
75991;BME280;64673;52.276;10.560;2023-02-01T06:33:45;100332.53;;;3.21;90.51
75991;BME280;64673;52.276;10.560;2023-02-01T06:36:11;100356.78;;;3.31;90.61
75991;BME280;64673;52.276;10.560;2023-02-01T06:38:37;100343.63;;;3.36;90.60
75991;BME280;64673;52.276;10.560;2023-02-01T06:41:04;100334.22;;;3.34;90.61
75991;BME280;64673;52.276;10.560;2023-02-01T06:43:30;100328.44;;;3.37;90.95
75991;BME280;64673;52.276;10.560;2023-02-01T06:46:04;100324.84;;;3.43;90.13
75991;BME280;64673;52.276;10.560;2023-02-01T06:48:30;100332.16;;;3.47;89.50
75991;BME280;64673;52.276;10.560;2023-02-01T06:50:55;100326.72;;;3.54;88.93
75991;BME280;64673;52.276;10.560;2023-02-01T06:53:21;100335.44;;;3.49;89.38
75991;BME280;64673;52.276;10.560;2023-02-01T06:56:01;100328.06;;;3.33;91.79
75991;BME280;64673;52.276;10.560;2023-02-01T06:58:31;100322.38;;;3.29;92.15
75991;BME280;64673;52.276;10.560;2023-02-01T07:00:57;100321.69;;;3.34;90.87
75991;BME280;64673;52.276;10.560;2023-02-01T07:03:22;100332.00;;;3.30;91.91
75991;BME280;64673;52.276;10.560;2023-02-01T07:05:48;100333.41;;;3.33;92.06
75991;BME280;64673;52.276;10.560;2023-02-01T07:08:13;100339.69;;;3.39;91.35
75991;BME280;64673;52.276;10.560;2023-02-01T07:10:38;100326.00;;;3.35;92.02
75991;BME280;64673;52.276;10.560;2023-02-01T07:13:04;100329.03;;;3.39;91.96
75991;BME280;64673;52.276;10.560;2023-02-01T07:15:29;100333.88;;;3.42;91.35
75991;BME280;64673;52.276;10.560;2023-02-01T07:17:55;100332.59;;;3.33;93.31
75991;BME280;64673;52.276;10.560;2023-02-01T07:20:20;100342.84;;;3.47;91.32
75991;BME280;64673;52.276;10.560;2023-02-01T07:22:46;100348.88;;;3.54;90.74
75991;BME280;64673;52.276;10.560;2023-02-01T07:25:11;100358.81;;;3.47;90.98
75991;BME280;64673;52.276;10.560;2023-02-01T07:27:37;100332.88;;;3.54;90.82
75991;BME280;64673;52.276;10.560;2023-02-01T07:30:04;100352.47;;;3.48;91.12
75991;BME280;64673;52.276;10.560;2023-02-01T07:32:29;100378.97;;;3.43;91.97
75991;BME280;64673;52.276;10.560;2023-02-01T07:34:55;100349.44;;;3.45;91.49
75991;BME280;64673;52.276;10.560;2023-02-01T07:37:21;100366.59;;;3.49;90.08
75991;BME280;64673;52.276;10.560;2023-02-01T07:39:46;100369.00;;;3.50;90.84
75991;BME280;64673;52.276;10.560;2023-02-01T07:42:12;100361.75;;;3.57;89.27
75991;BME280;64673;52.276;10.560;2023-02-01T07:44:37;100375.63;;;3.48;91.48
75991;BME280;64673;52.276;10.560;2023-02-01T07:47:02;100359.16;;;3.51;91.03
75991;BME280;64673;52.276;10.560;2023-02-01T07:49:28;100372.53;;;3.62;88.54
75991;BME280;64673;52.276;10.560;2023-02-01T07:51:53;100364.41;;;3.57;90.27
75991;BME280;64673;52.276;10.560;2023-02-01T07:54:18;100374.03;;;3.58;90.25
75991;BME280;64673;52.276;10.560;2023-02-01T07:56:44;100370.91;;;3.61;90.28
75991;BME280;64673;52.276;10.560;2023-02-01T07:59:09;100357.72;;;3.66;89.96
75991;BME280;64673;52.276;10.560;2023-02-01T08:01:36;100372.63;;;3.56;90.37
75991;BME280;64673;52.276;10.560;2023-02-01T08:04:02;100374.38;;;3.62;90.64
75991;BME280;64673;52.276;10.560;2023-02-01T08:06:30;100384.03;;;3.75;89.04
75991;BME280;64673;52.276;10.560;2023-02-01T08:08:56;100392.03;;;3.75;90.49
75991;BME280;64673;52.276;10.560;2023-02-01T08:11:23;100392.03;;;3.75;90.07
75991;BME280;64673;52.276;10.560;2023-02-01T08:13:49;100417.09;;;3.74;90.69
75991;BME280;64673;52.276;10.560;2023-02-01T08:16:16;100409.09;;;3.74;90.35
75991;BME280;64673;52.276;10.560;2023-02-01T08:18:42;100402.44;;;3.64;91.69
75991;BME280;64673;52.276;10.560;2023-02-01T08:21:13;100407.41;;;3.61;91.19
75991;BME280;64673;52.276;10.560;2023-02-01T08:23:40;100417.03;;;3.62;91.64
75991;BME280;64673;52.276;10.560;2023-02-01T08:26:11;100411.41;;;3.70;90.78
75991;BME280;64673;52.276;10.560;2023-02-01T08:28:38;100414.75;;;3.65;92.72
75991;BME280;64673;52.276;10.560;2023-02-01T08:31:06;100401.31;;;3.72;91.07
75991;BME280;64673;52.276;10.560;2023-02-01T08:33:31;100407.34;;;3.67;92.41
75991;BME280;64673;52.276;10.560;2023-02-01T08:35:57;100415.44;;;3.73;91.39
75991;BME280;64673;52.276;10.560;2023-02-01T08:38:22;100426.03;;;3.79;90.18
75991;BME280;64673;52.276;10.560;2023-02-01T08:40:47;100416.63;;;3.77;90.60
75991;BME280;64673;52.276;10.560;2023-02-01T08:43:13;100423.22;;;3.74;91.80
75991;BME280;64673;52.276;10.560;2023-02-01T08:45:39;100399.59;;;3.78;91.03
75991;BME280;64673;52.276;10.560;2023-02-01T08:48:05;100397.00;;;3.71;91.64
75991;BME280;64673;52.276;10.560;2023-02-01T08:50:30;100405.72;;;3.66;92.44
75991;BME280;64673;52.276;10.560;2023-02-01T08:52:55;100434.56;;;3.58;93.85
75991;BME280;64673;52.276;10.560;2023-02-01T08:55:21;100440.22;;;3.31;91.98
75991;BME280;64673;52.276;10.560;2023-02-01T08:57:46;100425.69;;;3.16;93.69
75991;BME280;64673;52.276;10.560;2023-02-01T09:00:14;100440.03;;;3.15;93.59
75991;BME280;64673;52.276;10.560;2023-02-01T09:02:41;100433.09;;;3.14;93.61
75991;BME280;64673;52.276;10.560;2023-02-01T09:05:06;100421.53;;;3.20;93.72
75991;BME280;64673;52.276;10.560;2023-02-01T09:07:33;100429.06;;;3.23;93.50
75991;BME280;64673;52.276;10.560;2023-02-01T09:09:59;100430.53;;;3.37;92.49
75991;BME280;64673;52.276;10.560;2023-02-01T09:12:27;100416.50;;;3.42;92.18
75991;BME280;64673;52.276;10.560;2023-02-01T09:14:52;100407.69;;;3.41;92.14
75991;BME280;64673;52.276;10.560;2023-02-01T09:17:18;100400.19;;;3.50;90.74
75991;BME280;64673;52.276;10.560;2023-02-01T09:19:43;100397.72;;;3.66;90.32
75991;BME280;64673;52.276;10.560;2023-02-01T09:22:08;100399.44;;;3.73;91.27
75991;BME280;64673;52.276;10.560;2023-02-01T09:24:34;100402.72;;;3.75;90.82
75991;BME280;64673;52.276;10.560;2023-02-01T09:26:59;100397.53;;;3.80;91.78
75991;BME280;64673;52.276;10.560;2023-02-01T09:29:24;100400.44;;;3.90;91.57
75991;BME280;64673;52.276;10.560;2023-02-01T09:31:50;100395.34;;;4.00;88.90
75991;BME280;64673;52.276;10.560;2023-02-01T09:34:15;100396.03;;;4.07;88.85
75991;BME280;64673;52.276;10.560;2023-02-01T09:36:41;100389.31;;;4.16;89.73
75991;BME280;64673;52.276;10.560;2023-02-01T09:39:06;100395.59;;;4.22;87.79
75991;BME280;64673;52.276;10.560;2023-02-01T09:44:56;100411.13;;;4.60;84.68
75991;BME280;64673;52.276;10.560;2023-02-01T09:47:25;100408.69;;;4.58;85.92
75991;BME280;64673;52.276;10.560;2023-02-01T09:50:00;100404.06;;;4.65;84.28
75991;BME280;64673;52.276;10.560;2023-02-01T09:55:48;100393.91;;;4.79;83.35
75991;BME280;64673;52.276;10.560;2023-02-01T09:58:36;100412.28;;;4.87;81.70
75991;BME280;64673;52.276;10.560;2023-02-01T10:01:04;100404.00;;;4.89;83.05
75991;BME280;64673;52.276;10.560;2023-02-01T10:03:35;100421.53;;;4.96;82.29
75991;BME280;64673;52.276;10.560;2023-02-01T10:08:58;100407.41;;;5.12;79.37
75991;BME280;64673;52.276;10.560;2023-02-01T10:23:09;100389.53;;;5.13;80.00
75991;BME280;64673;52.276;10.560;2023-02-01T10:28:22;100382.66;;;5.17;79.53
75991;BME280;64673;52.276;10.560;2023-02-01T10:30:54;100398.78;;;5.22;77.27
75991;BME280;64673;52.276;10.560;2023-02-01T10:35:53;100398.47;;;5.19;80.22
75991;BME280;64673;52.276;10.560;2023-02-01T10:38:30;100414.13;;;5.27;77.68
75991;BME280;64673;52.276;10.560;2023-02-01T10:41:22;100427.69;;;5.37;77.90
75991;BME280;64673;52.276;10.560;2023-02-01T10:43:52;100408.50;;;5.40;78.42
75991;BME280;64673;52.276;10.560;2023-02-01T10:46:20;100420.09;;;5.45;77.52
75991;BME280;64673;52.276;10.560;2023-02-01T10:48:45;100411.84;;;5.47;78.00
75991;BME280;64673;52.276;10.560;2023-02-01T10:51:16;100423.66;;;5.51;77.41
75991;BME280;64673;52.276;10.560;2023-02-01T10:54:10;100432.03;;;5.55;76.82
75991;BME280;64673;52.276;10.560;2023-02-01T10:56:38;100409.59;;;5.56;76.42
75991;BME280;64673;52.276;10.560;2023-02-01T10:59:05;100416.56;;;5.57;76.76
75991;BME280;64673;52.276;10.560;2023-02-01T11:01:37;100414.69;;;5.57;76.83
75991;BME280;64673;52.276;10.560;2023-02-01T11:04:05;100399.69;;;5.56;76.86
75991;BME280;64673;52.276;10.560;2023-02-01T11:06:44;100400.75;;;5.55;76.48
75991;BME280;64673;52.276;10.560;2023-02-01T11:09:18;100412.59;;;5.59;76.95
75991;BME280;64673;52.276;10.560;2023-02-01T11:16:40;100399.34;;;5.52;77.19
75991;BME280;64673;52.276;10.560;2023-02-01T11:19:06;100418.00;;;5.47;76.74
75991;BME280;64673;52.276;10.560;2023-02-01T11:21:33;100389.28;;;5.43;78.00
75991;BME280;64673;52.276;10.560;2023-02-01T11:24:06;100396.84;;;5.46;76.59
75991;BME280;64673;52.276;10.560;2023-02-01T11:26:39;100384.66;;;5.38;77.64
75991;BME280;64673;52.276;10.560;2023-02-01T11:29:14;100390.69;;;5.45;77.31
75991;BME280;64673;52.276;10.560;2023-02-01T11:31:44;100378.81;;;5.41;78.07
75991;BME280;64673;52.276;10.560;2023-02-01T11:34:20;100377.78;;;5.42;78.61
75991;BME280;64673;52.276;10.560;2023-02-01T11:36:48;100374.41;;;5.47;77.03
75991;BME280;64673;52.276;10.560;2023-02-01T11:41:54;100366.94;;;5.49;76.72
75991;BME280;64673;52.276;10.560;2023-02-01T11:44:29;100360.16;;;5.58;75.97
75991;BME280;64673;52.276;10.560;2023-02-01T11:46:55;100345.63;;;5.54;77.55
75991;BME280;64673;52.276;10.560;2023-02-01T11:49:24;100345.16;;;5.57;76.39
75991;BME280;64673;52.276;10.560;2023-02-01T12:03:18;100325.47;;;5.80;75.52
75991;BME280;64673;52.276;10.560;2023-02-01T12:09:42;100309.06;;;5.76;76.30
75991;BME280;64673;52.276;10.560;2023-02-01T12:11:57;100301.78;;;5.72;75.78
75991;BME280;64673;52.276;10.560;2023-02-01T12:44:26;100235.81;;;5.61;76.31
75991;BME280;64673;52.276;10.560;2023-02-01T12:46:57;100225.25;;;5.54;76.70
75991;BME280;64673;52.276;10.560;2023-02-01T12:49:30;100217.66;;;5.46;76.26
75991;BME280;64673;52.276;10.560;2023-02-01T12:52:02;100206.63;;;5.42;76.64
75991;BME280;64673;52.276;10.560;2023-02-01T12:57:13;100184.91;;;5.39;77.06
75991;BME280;64673;52.276;10.560;2023-02-01T13:00:13;100184.25;;;5.32;78.36
75991;BME280;64673;52.276;10.560;2023-02-01T13:02:44;100182.47;;;5.21;78.61
75991;BME280;64673;52.276;10.560;2023-02-01T13:05:20;100162.06;;;5.14;80.44
75991;BME280;64673;52.276;10.560;2023-02-01T13:10:41;100154.03;;;4.81;84.11
75991;BME280;64673;52.276;10.560;2023-02-01T13:15:46;100154.84;;;4.65;85.25
75991;BME280;64673;52.276;10.560;2023-02-01T13:18:20;100166.47;;;4.59;87.01
75991;BME280;64673;52.276;10.560;2023-02-01T13:21:00;100151.31;;;4.48;85.26
75991;BME280;64673;52.276;10.560;2023-02-01T13:23:34;100147.88;;;4.35;85.37
75991;BME280;64673;52.276;10.560;2023-02-01T13:26:00;100147.88;;;4.35;86.36
75991;BME280;64673;52.276;10.560;2023-02-01T13:28:27;100156.47;;;4.37;86.19
75991;BME280;64673;52.276;10.560;2023-02-01T13:34:13;100130.81;;;4.36;86.47
75991;BME280;64673;52.276;10.560;2023-02-01T13:37:02;100100.63;;;4.36;86.47
75991;BME280;64673;52.276;10.560;2023-02-01T13:39:51;100120.22;;;4.41;86.34
75991;BME280;64673;52.276;10.560;2023-02-01T13:42:25;100115.38;;;4.38;85.84
75991;BME280;64673;52.276;10.560;2023-02-01T13:44:57;100136.06;;;4.31;88.16
75991;BME280;64673;52.276;10.560;2023-02-01T13:49:49;100139.13;;;4.23;88.65
75991;BME280;64673;52.276;10.560;2023-02-01T13:52:25;100131.38;;;4.10;90.69
75991;BME280;64673;52.276;10.560;2023-02-01T13:55:02;100166.59;;;3.84;91.94
75991;BME280;64673;52.276;10.560;2023-02-01T13:57:39;100200.00;;;3.51;94.17
75991;BME280;64673;52.276;10.560;2023-02-01T14:08:10;100217.47;;;3.12;95.49
75991;BME280;64673;52.276;10.560;2023-02-01T14:10:57;100245.88;;;3.07;92.70
75991;BME280;64673;52.276;10.560;2023-02-01T14:13:34;100226.81;;;2.91;92.56
75991;BME280;64673;52.276;10.560;2023-02-01T14:21:28;100240.47;;;2.83;91.67
75991;BME280;64673;52.276;10.560;2023-02-01T14:24:04;100238.47;;;2.79;93.41
75991;BME280;64673;52.276;10.560;2023-02-01T14:26:46;100247.03;;;2.81;92.59
75991;BME280;64673;52.276;10.560;2023-02-01T14:34:34;100238.28;;;2.62;91.39
75991;BME280;64673;52.276;10.560;2023-02-01T14:37:07;100253.41;;;2.50;90.76
75991;BME280;64673;52.276;10.560;2023-02-01T14:39:54;100276.34;;;2.33;91.41
75991;BME280;64673;52.276;10.560;2023-02-01T14:44:50;100294.81;;;2.28;91.14
75991;BME280;64673;52.276;10.560;2023-02-01T14:52:43;100294.28;;;2.37;91.43
75991;BME280;64673;52.276;10.560;2023-02-01T14:55:21;100291.84;;;2.36;90.90
75991;BME280;64673;52.276;10.560;2023-02-01T14:57:50;100292.31;;;2.33;91.33
75991;BME280;64673;52.276;10.560;2023-02-01T15:00:22;100290.44;;;2.33;91.42
75991;BME280;64673;52.276;10.560;2023-02-01T15:02:49;100317.13;;;2.27;91.83
75991;BME280;64673;52.276;10.560;2023-02-01T15:05:31;100299.53;;;2.26;92.10
75991;BME280;64673;52.276;10.560;2023-02-01T15:08:00;100305.88;;;2.25;91.89
75991;BME280;64673;52.276;10.560;2023-02-01T15:10:31;100314.38;;;2.15;91.37
75991;BME280;64673;52.276;10.560;2023-02-01T15:12:58;100296.88;;;2.26;92.42
75991;BME280;64673;52.276;10.560;2023-02-01T15:15:24;100301.44;;;2.18;92.31
75991;BME280;64673;52.276;10.560;2023-02-01T15:17:55;100312.53;;;2.15;91.69
75991;BME280;64673;52.276;10.560;2023-02-01T15:20:24;100314.59;;;2.13;91.79
75991;BME280;64673;52.276;10.560;2023-02-01T15:22:58;100323.38;;;2.14;90.86
75991;BME280;64673;52.276;10.560;2023-02-01T15:25:35;100320.69;;;2.20;91.13
75991;BME280;64673;52.276;10.560;2023-02-01T15:28:02;100317.41;;;2.18;91.12
75991;BME280;64673;52.276;10.560;2023-02-01T15:30:30;100323.16;;;2.15;91.39
75991;BME280;64673;52.276;10.560;2023-02-01T15:43:29;100320.81;;;2.26;91.48